sensor_id;sensor_type;location;lat;lon;timestamp;pressure;altitude;pressure_sealevel;temperature;humidity
7075;BME280;3578;51.568;6.932;2023-01-26T00:00:46;52777.13;;;-144.14;95.55
7075;BME280;3578;51.568;6.932;2023-01-26T00:03:13;52743.06;;;-144.14;96.00
7075;BME280;3578;51.568;6.932;2023-01-26T00:05:40;52721.03;;;-144.14;95.94
7075;BME280;3578;51.568;6.932;2023-01-26T00:08:09;52725.03;;;-144.14;95.77
7075;BME280;3578;51.568;6.932;2023-01-26T00:10:38;52745.06;;;-144.14;96.55
7075;BME280;3578;51.568;6.932;2023-01-26T00:13:07;52717.03;;;-144.14;96.84
7075;BME280;3578;51.568;6.932;2023-01-26T00:15:36;52674.94;;;-144.14;97.22
7075;BME280;3578;51.568;6.932;2023-01-26T00:18:03;52680.97;;;-144.14;97.25
7075;BME280;3578;51.568;6.932;2023-01-26T00:20:30;52648.91;;;-144.14;97.38
7075;BME280;3578;51.568;6.932;2023-01-26T00:22:57;52636.88;;;-144.14;97.55
7075;BME280;3578;51.568;6.932;2023-01-26T00:25:27;52608.81;;;-144.14;97.43
7075;BME280;3578;51.568;6.932;2023-01-26T00:27:54;52604.81;;;-144.14;98.19
7075;BME280;3578;51.568;6.932;2023-01-26T00:30:22;52546.72;;;-144.14;98.60
7075;BME280;3578;51.568;6.932;2023-01-26T00:32:49;52532.69;;;-144.14;98.98
7075;BME280;3578;51.568;6.932;2023-01-26T00:35:16;52496.63;;;-144.14;99.26
7075;BME280;3578;51.568;6.932;2023-01-26T00:37:43;52490.59;;;-144.14;98.87
7075;BME280;3578;51.568;6.932;2023-01-26T00:40:11;52506.63;;;-144.14;99.18
7075;BME280;3578;51.568;6.932;2023-01-26T00:42:39;52488.59;;;-144.14;98.88
7075;BME280;3578;51.568;6.932;2023-01-26T00:45:07;52504.63;;;-144.14;98.41
7075;BME280;3578;51.568;6.932;2023-01-26T00:47:34;52560.72;;;-144.14;98.12
7075;BME280;3578;51.568;6.932;2023-01-26T00:50:01;52556.72;;;-144.14;97.88
7075;BME280;3578;51.568;6.932;2023-01-26T00:52:28;52524.66;;;-144.14;98.00
7075;BME280;3578;51.568;6.932;2023-01-26T00:54:55;52528.69;;;-144.14;98.50
7075;BME280;3578;51.568;6.932;2023-01-26T00:57:22;52490.59;;;-144.14;98.63
7075;BME280;3578;51.568;6.932;2023-01-26T00:59:50;52492.59;;;-144.14;98.21
7075;BME280;3578;51.568;6.932;2023-01-26T01:02:17;52510.66;;;-144.14;98.28
7075;BME280;3578;51.568;6.932;2023-01-26T01:04:45;52500.63;;;-144.14;98.45
7075;BME280;3578;51.568;6.932;2023-01-26T01:07:12;52472.56;;;-144.14;98.67
7075;BME280;3578;51.568;6.932;2023-01-26T01:09:39;52358.38;;;-144.14;99.67
7075;BME280;3578;51.568;6.932;2023-01-26T01:12:06;52348.34;;;-144.14;99.76
7075;BME280;3578;51.568;6.932;2023-01-26T01:14:33;52274.22;;;-144.14;100.00
7075;BME280;3578;51.568;6.932;2023-01-26T01:17:02;52264.19;;;-144.14;100.00
7075;BME280;3578;51.568;6.932;2023-01-26T01:19:29;52302.28;;;-144.14;100.00
7075;BME280;3578;51.568;6.932;2023-01-26T01:21:56;52300.25;;;-144.14;100.00
7075;BME280;3578;51.568;6.932;2023-01-26T01:24:23;52280.22;;;-144.14;100.00
7075;BME280;3578;51.568;6.932;2023-01-26T01:26:50;52260.19;;;-144.14;100.00
7075;BME280;3578;51.568;6.932;2023-01-26T01:29:17;52310.28;;;-144.14;99.75
7075;BME280;3578;51.568;6.932;2023-01-26T01:31:44;52294.25;;;-144.14;100.00
7075;BME280;3578;51.568;6.932;2023-01-26T01:34:12;52246.16;;;-144.14;100.00
7075;BME280;3578;51.568;6.932;2023-01-26T01:36:39;52268.22;;;-144.14;100.00
7075;BME280;3578;51.568;6.932;2023-01-26T01:39:06;52248.19;;;-144.14;100.00
7075;BME280;3578;51.568;6.932;2023-01-26T01:41:33;52238.16;;;-144.14;100.00
7075;BME280;3578;51.568;6.932;2023-01-26T01:44:15;52162.03;;;-144.14;100.00
7075;BME280;3578;51.568;6.932;2023-01-26T01:46:50;52154.00;;;-144.14;100.00
7075;BME280;3578;51.568;6.932;2023-01-26T01:49:24;52276.22;;;-144.14;100.00
7075;BME280;3578;51.568;6.932;2023-01-26T01:51:56;52320.31;;;-144.14;99.83
7075;BME280;3578;51.568;6.932;2023-01-26T01:54:30;52324.31;;;-144.14;99.58
7075;BME280;3578;51.568;6.932;2023-01-26T01:57:03;52292.25;;;-144.14;99.70
7075;BME280;3578;51.568;6.932;2023-01-26T01:59:47;52276.22;;;-144.14;100.00
7075;BME280;3578;51.568;6.932;2023-01-26T02:02:17;52304.28;;;-144.14;100.00
7075;BME280;3578;51.568;6.932;2023-01-26T02:04:46;52272.22;;;-144.14;99.98
7075;BME280;3578;51.568;6.932;2023-01-26T02:07:14;52244.16;;;-144.14;100.00
7075;BME280;3578;51.568;6.932;2023-01-26T02:09:41;52240.16;;;-144.14;100.00
7075;BME280;3578;51.568;6.932;2023-01-26T02:12:30;52222.13;;;-144.14;100.00
7075;BME280;3578;51.568;6.932;2023-01-26T02:14:59;52260.19;;;-144.14;100.00
7075;BME280;3578;51.568;6.932;2023-01-26T02:17:27;52258.19;;;-144.14;100.00
7075;BME280;3578;51.568;6.932;2023-01-26T02:20:03;52216.13;;;-144.14;100.00
7075;BME280;3578;51.568;6.932;2023-01-26T02:22:41;52216.13;;;-144.14;100.00
7075;BME280;3578;51.568;6.932;2023-01-26T02:25:21;52184.06;;;-144.14;100.00
7075;BME280;3578;51.568;6.932;2023-01-26T02:27:53;52164.03;;;-144.14;100.00
7075;BME280;3578;51.568;6.932;2023-01-26T02:30:22;52123.97;;;-144.14;100.00
7075;BME280;3578;51.568;6.932;2023-01-26T02:32:49;52172.03;;;-144.14;100.00
7075;BME280;3578;51.568;6.932;2023-01-26T02:35:16;52218.13;;;-144.14;100.00
7075;BME280;3578;51.568;6.932;2023-01-26T02:37:43;52186.06;;;-144.14;100.00
7075;BME280;3578;51.568;6.932;2023-01-26T02:40:20;52222.13;;;-144.14;100.00
7075;BME280;3578;51.568;6.932;2023-01-26T02:42:53;52184.06;;;-144.14;100.00
7075;BME280;3578;51.568;6.932;2023-01-26T02:45:20;52071.88;;;-144.14;100.00
7075;BME280;3578;51.568;6.932;2023-01-26T02:47:48;52067.88;;;-144.14;100.00
7075;BME280;3578;51.568;6.932;2023-01-26T02:50:16;52085.91;;;-144.14;100.00
7075;BME280;3578;51.568;6.932;2023-01-26T02:52:42;52059.84;;;-144.14;100.00
7075;BME280;3578;51.568;6.932;2023-01-26T02:55:09;52045.81;;;-144.14;100.00
7075;BME280;3578;51.568;6.932;2023-01-26T02:57:49;52083.88;;;-144.14;100.00
7075;BME280;3578;51.568;6.932;2023-01-26T03:00:19;52182.06;;;-144.14;100.00
7075;BME280;3578;51.568;6.932;2023-01-26T03:02:47;52172.03;;;-144.14;100.00
7075;BME280;3578;51.568;6.932;2023-01-26T03:05:15;52182.06;;;-144.14;100.00
7075;BME280;3578;51.568;6.932;2023-01-26T03:07:42;52216.13;;;-144.14;100.00
7075;BME280;3578;51.568;6.932;2023-01-26T03:10:11;52244.16;;;-144.14;100.00
7075;BME280;3578;51.568;6.932;2023-01-26T03:12:38;52192.06;;;-144.14;100.00
7075;BME280;3578;51.568;6.932;2023-01-26T03:15:07;52172.03;;;-144.14;100.00
7075;BME280;3578;51.568;6.932;2023-01-26T03:18:00;52208.09;;;-144.14;100.00
7075;BME280;3578;51.568;6.932;2023-01-26T03:21:01;52208.09;;;-144.14;100.00
7075;BME280;3578;51.568;6.932;2023-01-26T03:23:46;52164.03;;;-144.14;100.00
7075;BME280;3578;51.568;6.932;2023-01-26T03:26:31;52172.03;;;-144.14;100.00
7075;BME280;3578;51.568;6.932;2023-01-26T03:29:15;52172.03;;;-144.14;100.00
7075;BME280;3578;51.568;6.932;2023-01-26T03:31:43;52166.03;;;-144.14;100.00
7075;BME280;3578;51.568;6.932;2023-01-26T03:34:11;52180.06;;;-144.14;100.00
7075;BME280;3578;51.568;6.932;2023-01-26T03:36:38;52182.06;;;-144.14;100.00
7075;BME280;3578;51.568;6.932;2023-01-26T03:39:06;52125.97;;;-144.14;100.00
7075;BME280;3578;51.568;6.932;2023-01-26T03:41:33;52146.00;;;-144.14;100.00
7075;BME280;3578;51.568;6.932;2023-01-26T03:44:17;52137.97;;;-144.14;100.00
7075;BME280;3578;51.568;6.932;2023-01-26T03:47:02;52121.94;;;-144.14;100.00
7075;BME280;3578;51.568;6.932;2023-01-26T03:49:48;52107.94;;;-144.14;100.00
7075;BME280;3578;51.568;6.932;2023-01-26T03:52:32;52097.91;;;-144.14;100.00
7075;BME280;3578;51.568;6.932;2023-01-26T03:55:17;52071.88;;;-144.14;100.00
7075;BME280;3578;51.568;6.932;2023-01-26T03:58:02;52035.81;;;-144.14;100.00
7075;BME280;3578;51.568;6.932;2023-01-26T04:00:29;52037.81;;;-144.14;100.00
7075;BME280;3578;51.568;6.932;2023-01-26T04:02:56;51969.69;;;-144.14;100.00
7075;BME280;3578;51.568;6.932;2023-01-26T04:05:42;51947.66;;;-144.14;100.00
7075;BME280;3578;51.568;6.932;2023-01-26T04:08:26;51963.69;;;-144.14;100.00
7075;BME280;3578;51.568;6.932;2023-01-26T04:10:54;51923.63;;;-144.14;100.00
7075;BME280;3578;51.568;6.932;2023-01-26T04:13:23;51999.75;;;-144.14;100.00
7075;BME280;3578;51.568;6.932;2023-01-26T04:16:09;51985.72;;;-144.14;100.00
7075;BME280;3578;51.568;6.932;2023-01-26T04:18:54;52011.78;;;-144.14;100.00
7075;BME280;3578;51.568;6.932;2023-01-26T04:21:40;51983.72;;;-144.14;100.00
7075;BME280;3578;51.568;6.932;2023-01-26T04:24:07;51963.69;;;-144.14;100.00
7075;BME280;3578;51.568;6.932;2023-01-26T04:26:39;51895.56;;;-144.14;100.00
7075;BME280;3578;51.568;6.932;2023-01-26T04:29:10;51887.56;;;-144.14;100.00
7075;BME280;3578;51.568;6.932;2023-01-26T04:31:38;51895.56;;;-144.14;100.00
7075;BME280;3578;51.568;6.932;2023-01-26T04:34:09;51905.59;;;-144.14;100.00
7075;BME280;3578;51.568;6.932;2023-01-26T04:36:36;51923.63;;;-144.14;100.00
7075;BME280;3578;51.568;6.932;2023-01-26T04:39:05;51951.66;;;-144.14;100.00
7075;BME280;3578;51.568;6.932;2023-01-26T04:41:32;51957.69;;;-144.14;100.00
7075;BME280;3578;51.568;6.932;2023-01-26T04:44:00;51947.66;;;-144.14;100.00
7075;BME280;3578;51.568;6.932;2023-01-26T04:46:27;51935.63;;;-144.14;100.00
7075;BME280;3578;51.568;6.932;2023-01-26T04:48:54;51933.63;;;-144.14;100.00
7075;BME280;3578;51.568;6.932;2023-01-26T04:51:22;51933.63;;;-144.14;100.00
7075;BME280;3578;51.568;6.932;2023-01-26T04:53:49;51923.63;;;-144.14;100.00
7075;BME280;3578;51.568;6.932;2023-01-26T04:56:22;51919.63;;;-144.14;100.00
7075;BME280;3578;51.568;6.932;2023-01-26T04:58:50;51875.53;;;-144.14;100.00
7075;BME280;3578;51.568;6.932;2023-01-26T05:01:17;51859.50;;;-144.14;100.00
7075;BME280;3578;51.568;6.932;2023-01-26T05:03:45;51855.50;;;-144.14;100.00
7075;BME280;3578;51.568;6.932;2023-01-26T05:06:12;51875.53;;;-144.14;100.00
7075;BME280;3578;51.568;6.932;2023-01-26T05:08:40;51903.59;;;-144.14;100.00
7075;BME280;3578;51.568;6.932;2023-01-26T05:11:07;51911.59;;;-144.14;100.00
7075;BME280;3578;51.568;6.932;2023-01-26T05:13:35;51861.53;;;-144.14;100.00
7075;BME280;3578;51.568;6.932;2023-01-26T05:16:03;51835.47;;;-144.14;100.00
7075;BME280;3578;51.568;6.932;2023-01-26T05:18:30;51833.47;;;-144.14;100.00
7075;BME280;3578;51.568;6.932;2023-01-26T05:20:57;51811.44;;;-144.14;100.00
7075;BME280;3578;51.568;6.932;2023-01-26T05:23:25;51803.44;;;-144.14;100.00
7075;BME280;3578;51.568;6.932;2023-01-26T05:25:52;51861.53;;;-144.14;100.00
7075;BME280;3578;51.568;6.932;2023-01-26T05:28:19;51777.38;;;-144.14;100.00
7075;BME280;3578;51.568;6.932;2023-01-26T05:30:47;51787.41;;;-144.14;100.00
7075;BME280;3578;51.568;6.932;2023-01-26T05:33:14;51845.50;;;-144.14;100.00
7075;BME280;3578;51.568;6.932;2023-01-26T05:35:41;51805.44;;;-144.14;100.00
7075;BME280;3578;51.568;6.932;2023-01-26T05:38:08;51791.41;;;-144.14;100.00
7075;BME280;3578;51.568;6.932;2023-01-26T05:40:35;51755.34;;;-144.14;100.00
7075;BME280;3578;51.568;6.932;2023-01-26T05:43:02;51719.28;;;-144.14;100.00
7075;BME280;3578;51.568;6.932;2023-01-26T05:45:29;51731.31;;;-144.14;100.00
7075;BME280;3578;51.568;6.932;2023-01-26T05:47:58;51687.25;;;-144.14;100.00
7075;BME280;3578;51.568;6.932;2023-01-26T05:50:25;51739.31;;;-144.14;100.00
7075;BME280;3578;51.568;6.932;2023-01-26T05:52:52;51713.28;;;-144.14;100.00
7075;BME280;3578;51.568;6.932;2023-01-26T05:55:19;51729.31;;;-144.14;100.00
7075;BME280;3578;51.568;6.932;2023-01-26T05:57:46;51695.25;;;-144.14;100.00
7075;BME280;3578;51.568;6.932;2023-01-26T06:00:15;51755.34;;;-144.14;100.00
7075;BME280;3578;51.568;6.932;2023-01-26T06:02:42;51747.34;;;-144.14;100.00
7075;BME280;3578;51.568;6.932;2023-01-26T06:05:10;51811.44;;;-144.14;100.00
7075;BME280;3578;51.568;6.932;2023-01-26T06:07:37;51843.50;;;-144.14;100.00
7075;BME280;3578;51.568;6.932;2023-01-26T06:10:05;51811.44;;;-144.14;100.00
7075;BME280;3578;51.568;6.932;2023-01-26T06:12:32;51775.38;;;-144.14;100.00
7075;BME280;3578;51.568;6.932;2023-01-26T06:15:04;51747.34;;;-144.14;100.00
7075;BME280;3578;51.568;6.932;2023-01-26T06:17:32;51721.28;;;-144.14;100.00
7075;BME280;3578;51.568;6.932;2023-01-26T06:19:59;51733.31;;;-144.14;100.00
7075;BME280;3578;51.568;6.932;2023-01-26T06:22:27;51761.34;;;-144.14;100.00
7075;BME280;3578;51.568;6.932;2023-01-26T06:24:54;51745.34;;;-144.14;100.00
7075;BME280;3578;51.568;6.932;2023-01-26T06:27:21;51723.28;;;-144.14;100.00
7075;BME280;3578;51.568;6.932;2023-01-26T06:29:48;51735.31;;;-144.14;100.00
7075;BME280;3578;51.568;6.932;2023-01-26T06:32:15;51691.25;;;-144.14;100.00
7075;BME280;3578;51.568;6.932;2023-01-26T06:34:42;51707.28;;;-144.14;100.00
7075;BME280;3578;51.568;6.932;2023-01-26T06:37:09;51637.16;;;-144.14;100.00
7075;BME280;3578;51.568;6.932;2023-01-26T06:39:37;51667.22;;;-144.14;100.00
7075;BME280;3578;51.568;6.932;2023-01-26T06:42:05;51675.22;;;-144.14;100.00
7075;BME280;3578;51.568;6.932;2023-01-26T06:44:33;51679.22;;;-144.14;100.00
7075;BME280;3578;51.568;6.932;2023-01-26T06:47:00;51651.19;;;-144.14;100.00
7075;BME280;3578;51.568;6.932;2023-01-26T06:49:26;51637.16;;;-144.14;100.00
7075;BME280;3578;51.568;6.932;2023-01-26T06:51:56;51651.19;;;-144.14;100.00
7075;BME280;3578;51.568;6.932;2023-01-26T06:54:24;51675.22;;;-144.14;100.00
7075;BME280;3578;51.568;6.932;2023-01-26T06:56:53;51691.25;;;-144.14;100.00
7075;BME280;3578;51.568;6.932;2023-01-26T06:59:19;51643.16;;;-144.14;100.00
7075;BME280;3578;51.568;6.932;2023-01-26T07:01:47;51627.16;;;-144.14;100.00
7075;BME280;3578;51.568;6.932;2023-01-26T07:04:15;51703.25;;;-144.14;100.00
7075;BME280;3578;51.568;6.932;2023-01-26T07:06:43;51673.22;;;-144.14;100.00
7075;BME280;3578;51.568;6.932;2023-01-26T07:09:10;51737.31;;;-144.14;100.00
7075;BME280;3578;51.568;6.932;2023-01-26T07:11:37;51707.28;;;-144.14;100.00
7075;BME280;3578;51.568;6.932;2023-01-26T07:14:06;51725.31;;;-144.14;100.00
7075;BME280;3578;51.568;6.932;2023-01-26T07:16:32;51665.22;;;-144.14;100.00
7075;BME280;3578;51.568;6.932;2023-01-26T07:18:59;51719.28;;;-144.14;100.00
7075;BME280;3578;51.568;6.932;2023-01-26T07:21:26;51695.25;;;-144.14;100.00
7075;BME280;3578;51.568;6.932;2023-01-26T07:23:55;51749.34;;;-144.14;100.00
7075;BME280;3578;51.568;6.932;2023-01-26T07:26:22;51739.31;;;-144.14;100.00
7075;BME280;3578;51.568;6.932;2023-01-26T07:28:49;51759.34;;;-144.14;100.00
7075;BME280;3578;51.568;6.932;2023-01-26T07:31:18;51721.28;;;-144.14;100.00
7075;BME280;3578;51.568;6.932;2023-01-26T07:33:45;51755.34;;;-144.14;100.00
7075;BME280;3578;51.568;6.932;2023-01-26T07:36:12;51755.34;;;-144.14;100.00
7075;BME280;3578;51.568;6.932;2023-01-26T07:38:39;51709.28;;;-144.14;100.00
7075;BME280;3578;51.568;6.932;2023-01-26T07:41:10;51743.34;;;-144.14;100.00
7075;BME280;3578;51.568;6.932;2023-01-26T07:43:38;51727.31;;;-144.14;100.00
7075;BME280;3578;51.568;6.932;2023-01-26T07:46:06;51745.34;;;-144.14;100.00
7075;BME280;3578;51.568;6.932;2023-01-26T07:48:36;51735.31;;;-144.14;100.00
7075;BME280;3578;51.568;6.932;2023-01-26T07:51:05;51729.31;;;-144.14;100.00
7075;BME280;3578;51.568;6.932;2023-01-26T07:53:34;51751.34;;;-144.14;100.00
7075;BME280;3578;51.568;6.932;2023-01-26T07:56:09;51699.25;;;-144.14;100.00
7075;BME280;3578;51.568;6.932;2023-01-26T07:58:37;51739.31;;;-144.14;100.00
7075;BME280;3578;51.568;6.932;2023-01-26T08:01:06;51763.34;;;-144.14;100.00
7075;BME280;3578;51.568;6.932;2023-01-26T08:03:36;51781.38;;;-144.14;100.00
7075;BME280;3578;51.568;6.932;2023-01-26T08:06:04;51821.44;;;-144.14;100.00
7075;BME280;3578;51.568;6.932;2023-01-26T08:08:32;51831.47;;;-144.14;100.00
7075;BME280;3578;51.568;6.932;2023-01-26T08:11:00;51815.44;;;-144.14;100.00
7075;BME280;3578;51.568;6.932;2023-01-26T08:13:28;51833.47;;;-144.14;100.00
7075;BME280;3578;51.568;6.932;2023-01-26T08:16:00;51811.44;;;-144.14;100.00
7075;BME280;3578;51.568;6.932;2023-01-26T08:18:28;51829.47;;;-144.14;100.00
7075;BME280;3578;51.568;6.932;2023-01-26T08:20:57;51791.41;;;-144.14;100.00
7075;BME280;3578;51.568;6.932;2023-01-26T08:23:25;51779.38;;;-144.14;100.00
7075;BME280;3578;51.568;6.932;2023-01-26T08:25:52;51705.28;;;-144.14;100.00
7075;BME280;3578;51.568;6.932;2023-01-26T08:28:19;51733.31;;;-144.14;100.00
7075;BME280;3578;51.568;6.932;2023-01-26T08:30:46;51795.41;;;-144.14;100.00
7075;BME280;3578;51.568;6.932;2023-01-26T08:33:13;51791.41;;;-144.14;100.00
7075;BME280;3578;51.568;6.932;2023-01-26T08:35:40;51791.41;;;-144.14;100.00
7075;BME280;3578;51.568;6.932;2023-01-26T08:38:08;51791.41;;;-144.14;100.00
7075;BME280;3578;51.568;6.932;2023-01-26T08:40:35;51823.47;;;-144.14;100.00
7075;BME280;3578;51.568;6.932;2023-01-26T08:43:03;51811.44;;;-144.14;100.00
7075;BME280;3578;51.568;6.932;2023-01-26T08:45:30;51833.47;;;-144.14;100.00
7075;BME280;3578;51.568;6.932;2023-01-26T08:47:57;51867.53;;;-144.14;100.00
7075;BME280;3578;51.568;6.932;2023-01-26T08:50:25;51835.47;;;-144.14;100.00
7075;BME280;3578;51.568;6.932;2023-01-26T08:52:54;51781.38;;;-144.14;100.00
7075;BME280;3578;51.568;6.932;2023-01-26T08:55:23;51793.41;;;-144.14;100.00
7075;BME280;3578;51.568;6.932;2023-01-26T08:57:53;51801.41;;;-144.14;100.00
7075;BME280;3578;51.568;6.932;2023-01-26T09:00:24;51803.44;;;-144.14;100.00
7075;BME280;3578;51.568;6.932;2023-01-26T09:02:57;51825.47;;;-144.14;100.00
7075;BME280;3578;51.568;6.932;2023-01-26T09:05:25;51823.47;;;-144.14;100.00
7075;BME280;3578;51.568;6.932;2023-01-26T09:07:52;51797.41;;;-144.14;100.00
7075;BME280;3578;51.568;6.932;2023-01-26T09:10:19;51817.44;;;-144.14;100.00
7075;BME280;3578;51.568;6.932;2023-01-26T09:12:47;51797.41;;;-144.14;100.00
7075;BME280;3578;51.568;6.932;2023-01-26T09:15:14;51787.41;;;-144.14;100.00
7075;BME280;3578;51.568;6.932;2023-01-26T09:17:41;51825.47;;;-144.14;100.00
7075;BME280;3578;51.568;6.932;2023-01-26T09:20:11;51775.38;;;-144.14;100.00
7075;BME280;3578;51.568;6.932;2023-01-26T09:22:37;51731.31;;;-144.14;100.00
7075;BME280;3578;51.568;6.932;2023-01-26T09:25:06;51767.38;;;-144.14;100.00
7075;BME280;3578;51.568;6.932;2023-01-26T09:27:33;51755.34;;;-144.14;100.00
7075;BME280;3578;51.568;6.932;2023-01-26T09:30:02;51757.34;;;-144.14;100.00
7075;BME280;3578;51.568;6.932;2023-01-26T09:32:29;51783.41;;;-144.14;100.00
7075;BME280;3578;51.568;6.932;2023-01-26T09:34:56;51783.41;;;-144.14;100.00
7075;BME280;3578;51.568;6.932;2023-01-26T09:37:23;51761.34;;;-144.14;100.00
7075;BME280;3578;51.568;6.932;2023-01-26T09:39:50;51791.41;;;-144.14;100.00
7075;BME280;3578;51.568;6.932;2023-01-26T09:42:36;51801.41;;;-144.14;100.00
7075;BME280;3578;51.568;6.932;2023-01-26T09:45:28;51787.41;;;-144.14;100.00
7075;BME280;3578;51.568;6.932;2023-01-26T09:48:20;51787.41;;;-144.14;100.00
7075;BME280;3578;51.568;6.932;2023-01-26T09:50:56;51825.47;;;-144.14;100.00
7075;BME280;3578;51.568;6.932;2023-01-26T09:53:33;51851.50;;;-144.14;100.00
7075;BME280;3578;51.568;6.932;2023-01-26T09:56:09;51911.59;;;-144.14;100.00
7075;BME280;3578;51.568;6.932;2023-01-26T09:58:40;51943.66;;;-144.14;100.00
7075;BME280;3578;51.568;6.932;2023-01-26T10:01:19;51947.66;;;-144.14;100.00
7075;BME280;3578;51.568;6.932;2023-01-26T10:04:00;51937.66;;;-144.14;100.00
7075;BME280;3578;51.568;6.932;2023-01-26T10:06:30;51905.59;;;-144.14;100.00
7075;BME280;3578;51.568;6.932;2023-01-26T10:09:02;51983.72;;;-144.14;100.00
7075;BME280;3578;51.568;6.932;2023-01-26T10:11:38;52043.81;;;-144.14;100.00
7075;BME280;3578;51.568;6.932;2023-01-26T10:14:12;52013.78;;;-144.14;100.00
7075;BME280;3578;51.568;6.932;2023-01-26T10:16:43;52025.78;;;-144.14;100.00
7075;BME280;3578;51.568;6.932;2023-01-26T10:19:16;52015.78;;;-144.14;100.00
7075;BME280;3578;51.568;6.932;2023-01-26T10:21:49;52019.78;;;-144.14;100.00
7075;BME280;3578;51.568;6.932;2023-01-26T10:24:21;51955.69;;;-144.14;100.00
7075;BME280;3578;51.568;6.932;2023-01-26T10:26:50;51945.66;;;-144.14;100.00
7075;BME280;3578;51.568;6.932;2023-01-26T10:29:18;51967.69;;;-144.14;100.00
7075;BME280;3578;51.568;6.932;2023-01-26T10:31:46;51955.69;;;-144.14;100.00
7075;BME280;3578;51.568;6.932;2023-01-26T10:34:16;51927.63;;;-144.14;100.00
7075;BME280;3578;51.568;6.932;2023-01-26T10:36:45;52033.81;;;-144.14;100.00
7075;BME280;3578;51.568;6.932;2023-01-26T10:39:14;52041.81;;;-144.14;100.00
7075;BME280;3578;51.568;6.932;2023-01-26T10:41:57;52035.81;;;-144.14;100.00
7075;BME280;3578;51.568;6.932;2023-01-26T10:44:33;52007.75;;;-144.14;100.00
7075;BME280;3578;51.568;6.932;2023-01-26T10:47:15;51993.75;;;-144.14;100.00
7075;BME280;3578;51.568;6.932;2023-01-26T10:49:42;51971.69;;;-144.14;100.00
7075;BME280;3578;51.568;6.932;2023-01-26T10:52:16;52007.75;;;-144.14;100.00
7075;BME280;3578;51.568;6.932;2023-01-26T10:54:43;52017.78;;;-144.14;100.00
7075;BME280;3578;51.568;6.932;2023-01-26T10:57:17;51995.75;;;-144.14;100.00
7075;BME280;3578;51.568;6.932;2023-01-26T10:59:53;52029.78;;;-144.14;100.00
7075;BME280;3578;51.568;6.932;2023-01-26T11:02:26;52021.78;;;-144.14;100.00
7075;BME280;3578;51.568;6.932;2023-01-26T11:05:14;52035.81;;;-144.14;100.00
7075;BME280;3578;51.568;6.932;2023-01-26T11:07:46;52023.78;;;-144.14;100.00
7075;BME280;3578;51.568;6.932;2023-01-26T11:10:24;51989.72;;;-144.14;100.00
7075;BME280;3578;51.568;6.932;2023-01-26T11:13:16;51927.63;;;-144.14;100.00
7075;BME280;3578;51.568;6.932;2023-01-26T11:15:46;51971.69;;;-144.14;100.00
7075;BME280;3578;51.568;6.932;2023-01-26T11:18:39;51945.66;;;-144.14;100.00
7075;BME280;3578;51.568;6.932;2023-01-26T11:21:11;51947.66;;;-144.14;100.00
7075;BME280;3578;51.568;6.932;2023-01-26T11:24:01;51933.63;;;-144.14;100.00
7075;BME280;3578;51.568;6.932;2023-01-26T11:29:56;51971.69;;;-144.14;100.00
7075;BME280;3578;51.568;6.932;2023-01-26T11:32:34;51895.56;;;-144.14;100.00
7075;BME280;3578;51.568;6.932;2023-01-26T11:35:15;51935.63;;;-144.14;100.00
7075;BME280;3578;51.568;6.932;2023-01-26T11:37:52;51937.66;;;-144.14;100.00
7075;BME280;3578;51.568;6.932;2023-01-26T11:40:31;51947.66;;;-144.14;100.00
7075;BME280;3578;51.568;6.932;2023-01-26T11:43:36;51877.53;;;-144.14;100.00
7075;BME280;3578;51.568;6.932;2023-01-26T11:46:23;51863.53;;;-144.14;100.00
7075;BME280;3578;51.568;6.932;2023-01-26T11:49:06;51917.63;;;-144.14;100.00
7075;BME280;3578;51.568;6.932;2023-01-26T11:51:54;51915.59;;;-144.14;100.00
7075;BME280;3578;51.568;6.932;2023-01-26T11:54:37;51867.53;;;-144.14;100.00
7075;BME280;3578;51.568;6.932;2023-01-26T11:57:20;51895.56;;;-144.14;100.00
7075;BME280;3578;51.568;6.932;2023-01-26T11:59:56;51899.59;;;-144.14;100.00
7075;BME280;3578;51.568;6.932;2023-01-26T12:02:29;51895.56;;;-144.14;100.00
7075;BME280;3578;51.568;6.932;2023-01-26T12:05:01;51813.44;;;-144.14;100.00
7075;BME280;3578;51.568;6.932;2023-01-26T12:07:41;51783.41;;;-144.14;100.00
7075;BME280;3578;51.568;6.932;2023-01-26T12:10:23;51819.44;;;-144.14;100.00
7075;BME280;3578;51.568;6.932;2023-01-26T12:12:57;51817.44;;;-144.14;100.00
7075;BME280;3578;51.568;6.932;2023-01-26T12:15:32;51757.34;;;-144.14;100.00
7075;BME280;3578;51.568;6.932;2023-01-26T12:18:09;51749.34;;;-144.14;100.00
7075;BME280;3578;51.568;6.932;2023-01-26T12:20:43;51835.47;;;-144.14;100.00
7075;BME280;3578;51.568;6.932;2023-01-26T12:23:22;51791.41;;;-144.14;100.00
7075;BME280;3578;51.568;6.932;2023-01-26T12:25:56;51757.34;;;-144.14;100.00
7075;BME280;3578;51.568;6.932;2023-01-26T12:28:30;51747.34;;;-144.14;100.00
7075;BME280;3578;51.568;6.932;2023-01-26T12:31:03;51779.38;;;-144.14;100.00
7075;BME280;3578;51.568;6.932;2023-01-26T12:33:34;51807.44;;;-144.14;100.00
7075;BME280;3578;51.568;6.932;2023-01-26T12:36:19;51829.47;;;-144.14;100.00
7075;BME280;3578;51.568;6.932;2023-01-26T12:39:10;51799.41;;;-144.14;100.00
7075;BME280;3578;51.568;6.932;2023-01-26T12:42:00;51777.38;;;-144.14;100.00
7075;BME280;3578;51.568;6.932;2023-01-26T12:44:37;51803.44;;;-144.14;100.00
7075;BME280;3578;51.568;6.932;2023-01-26T12:47:13;51835.47;;;-144.14;100.00
7075;BME280;3578;51.568;6.932;2023-01-26T12:49:51;51849.50;;;-144.14;100.00
7075;BME280;3578;51.568;6.932;2023-01-26T12:52:25;51861.53;;;-144.14;100.00
7075;BME280;3578;51.568;6.932;2023-01-26T12:55:00;51825.47;;;-144.14;100.00
7075;BME280;3578;51.568;6.932;2023-01-26T12:57:37;51863.53;;;-144.14;100.00
7075;BME280;3578;51.568;6.932;2023-01-26T13:00:18;51807.44;;;-144.14;100.00
7075;BME280;3578;51.568;6.932;2023-01-26T13:02:50;51823.47;;;-144.14;100.00
7075;BME280;3578;51.568;6.932;2023-01-26T13:05:28;51817.44;;;-144.14;100.00
7075;BME280;3578;51.568;6.932;2023-01-26T13:07:56;51827.47;;;-144.14;100.00
7075;BME280;3578;51.568;6.932;2023-01-26T13:10:48;51843.50;;;-144.14;100.00
7075;BME280;3578;51.568;6.932;2023-01-26T13:13:30;51799.41;;;-144.14;100.00
7075;BME280;3578;51.568;6.932;2023-01-26T13:16:31;51785.41;;;-144.14;100.00